Time;durP1;ratioP1;P1;durP2;ratioP2;P2;SDS_P1;SDS_P2;PMS_P1;PMS_P2;Temp;Humidity;BMP_temperature;BMP_pressure;BME280_temperature;BME280_humidity;BME280_pressure;Samples;Min_cycle;Max_cycle;Signal;HPM_P1;HPM_P2
2024/02/07 00:01:51;;;;;;;10.63;6.33;;;5.90;99.90;;;;;;4230835;28;20692;-61
2024/02/07 00:03:52;;;;;;;13.17;6.30;;;5.80;99.90;;;;;;4229189;27;20097;-61
2024/02/07 00:05:54;;;;;;;10.50;5.70;;;5.70;99.90;;;;;;4214066;28;20048;-60
2024/02/07 00:07:55;;;;;;;22.33;13.00;;;5.70;99.90;;;;;;4212720;28;20036;-62
2024/02/07 00:09:56;;;;;;;14.73;7.97;;;5.70;99.90;;;;;;4213877;28;20020;-62
2024/02/07 00:11:57;;;;;;;10.93;6.00;;;5.60;99.90;;;;;;4223909;28;20382;-61
2024/02/07 00:13:59;;;;;;;12.83;6.97;;;5.50;99.90;;;;;;4230469;28;20503;-61
2024/02/07 00:16:00;;;;;;;11.63;6.63;;;5.30;99.90;;;;;;4229403;28;20871;-62
2024/02/07 00:18:01;;;;;;;11.13;5.20;;;5.30;99.90;;;;;;4230343;27;20032;-60
2024/02/07 00:20:02;;;;;;;10.97;4.80;;;5.30;99.90;;;;;;4229170;28;20047;-60
2024/02/07 00:22:03;;;;;;;7.57;4.67;;;5.30;99.90;;;;;;4230063;28;20043;-62
2024/02/07 00:24:06;;;;;;;9.97;5.23;;;5.30;99.90;;;;;;4230034;27;20044;-61
2024/02/07 00:26:07;;;;;;;11.67;5.80;;;5.40;99.90;;;;;;4229712;28;20027;-62
2024/02/07 00:28:09;;;;;;;12.63;6.17;;;5.40;99.90;;;;;;4230225;27;20043;-62
2024/02/07 00:30:11;;;;;;;10.47;5.77;;;5.40;99.90;;;;;;4228499;28;20477;-62
2024/02/07 00:32:13;;;;;;;10.00;5.80;;;5.40;99.90;;;;;;4230171;28;20039;-60
2024/02/07 00:34:14;;;;;;;8.30;4.90;;;5.40;99.90;;;;;;4229236;28;20035;-61
2024/02/07 00:36:15;;;;;;;15.23;6.87;;;5.50;99.90;;;;;;4230329;28;20043;-62
2024/02/07 00:38:17;;;;;;;11.47;5.37;;;5.50;99.90;;;;;;4229103;27;20119;-61
2024/02/07 00:40:18;;;;;;;8.57;5.10;;;5.50;99.90;;;;;;4229437;27;20043;-61
2024/02/07 00:42:19;;;;;;;12.87;7.20;;;5.50;99.90;;;;;;4228493;28;20093;-61
2024/02/07 00:44:20;;;;;;;22.00;6.77;;;5.50;99.90;;;;;;4229665;27;20487;-61
2024/02/07 00:46:22;;;;;;;37.63;19.37;;;5.60;99.90;;;;;;4229122;28;20057;-61
2024/02/07 00:48:23;;;;;;;21.93;12.10;;;5.50;99.90;;;;;;4229996;27;20122;-61
2024/02/07 00:50:24;;;;;;;18.70;9.43;;;5.40;99.90;;;;;;4228631;28;20028;-60
2024/02/07 00:52:25;;;;;;;13.80;7.40;;;5.40;99.90;;;;;;4229488;28;20088;-60
2024/02/07 00:54:27;;;;;;;20.70;8.20;;;5.30;99.90;;;;;;4227692;28;20027;-61
2024/02/07 00:56:29;;;;;;;13.37;6.87;;;5.30;99.90;;;;;;4229625;28;20625;-61
2024/02/07 00:58:30;;;;;;;14.80;7.67;;;5.30;99.90;;;;;;4228667;28;20092;-60
2024/02/07 01:00:31;;;;;;;12.47;7.50;;;5.30;99.90;;;;;;4228649;28;20097;-60
2024/02/07 01:02:32;;;;;;;18.73;8.80;;;5.30;99.90;;;;;;4229637;28;20065;-60
2024/02/07 01:04:33;;;;;;;20.43;8.57;;;5.20;99.90;;;;;;4228491;28;20068;-62
2024/02/07 01:06:34;;;;;;;12.30;6.63;;;5.10;99.90;;;;;;4229463;28;20040;-61
2024/02/07 01:08:36;;;;;;;13.80;7.73;;;5.10;99.90;;;;;;4228826;27;20035;-61
2024/02/07 01:10:38;;;;;;;14.53;7.40;;;5.10;99.90;;;;;;4229417;28;20020;-61
2024/02/07 01:12:40;;;;;;;14.00;7.50;;;5.10;99.90;;;;;;4227064;27;20040;-61
2024/02/07 01:14:42;;;;;;;16.60;7.80;;;5.20;99.90;;;;;;4228472;27;20085;-61
2024/02/07 01:16:43;;;;;;;22.03;12.17;;;5.10;99.90;;;;;;4225326;28;20039;-61
2024/02/07 01:18:44;;;;;;;16.00;10.03;;;5.10;99.90;;;;;;4229697;27;20080;-61
2024/02/07 01:20:46;;;;;;;19.97;8.27;;;5.10;99.90;;;;;;4227366;28;20616;-61
2024/02/07 01:22:47;;;;;;;16.03;9.70;;;5.00;99.90;;;;;;4229276;28;20450;-61
2024/02/07 01:24:48;;;;;;;20.37;9.20;;;4.90;99.90;;;;;;4228433;28;20316;-61
2024/02/07 01:26:50;;;;;;;25.53;9.67;;;4.80;99.90;;;;;;4229057;28;20422;-62
2024/02/07 01:28:51;;;;;;;17.30;8.87;;;4.70;99.90;;;;;;4228600;28;20040;-61
2024/02/07 01:30:52;;;;;;;17.23;8.60;;;4.70;99.90;;;;;;4228193;28;20885;-61
2024/02/07 01:32:53;;;;;;;21.57;9.97;;;4.60;99.90;;;;;;4228441;28;20433;-61
2024/02/07 01:34:54;;;;;;;20.80;9.50;;;4.60;99.90;;;;;;4228270;28;20279;-61
2024/02/07 01:36:56;;;;;;;19.40;9.37;;;4.50;99.90;;;;;;4228943;28;20276;-61
2024/02/07 01:38:57;;;;;;;15.73;9.10;;;4.50;99.90;;;;;;4228147;28;20280;-62
2024/02/07 01:40:58;;;;;;;19.43;9.30;;;4.50;99.90;;;;;;4228876;28;20299;-62
2024/02/07 01:43:01;;;;;;;23.23;11.03;;;4.40;99.90;;;;;;4227856;28;20027;-61
2024/02/07 01:45:33;;;;;;;19.80;8.73;;;4.40;99.90;;;;;;4229272;28;20280;-60
2024/02/07 01:47:34;;;;;;;20.60;10.30;;;4.40;99.90;;;;;;4227616;28;20276;-62
2024/02/07 01:49:35;;;;;;;18.40;10.60;;;4.40;99.90;;;;;;4220965;28;20267;-61
2024/02/07 01:51:37;;;;;;;19.57;11.37;;;4.40;99.90;;;;;;4228028;28;20275;-62
2024/02/07 01:53:38;;;;;;;23.23;11.07;;;4.40;99.90;;;;;;4229125;28;20415;-62
2024/02/07 01:55:44;;;;;;;21.80;10.73;;;4.40;99.90;;;;;;4227484;27;20751;-63
2024/02/07 01:57:45;;;;;;;22.33;11.17;;;4.40;99.90;;;;;;4228329;28;20264;-61
2024/02/07 01:59:49;;;;;;;16.33;9.60;;;4.30;99.90;;;;;;4227637;28;20260;-63
2024/02/07 02:01:51;;;;;;;18.67;10.37;;;4.20;99.90;;;;;;4228336;28;20300;-62
2024/02/07 02:03:52;;;;;;;20.10;10.00;;;4.10;99.90;;;;;;4227153;28;20256;-59
2024/02/07 02:05:55;;;;;;;18.03;10.30;;;4.00;99.90;;;;;;4228457;28;20252;-60
2024/02/07 02:07:57;;;;;;;20.00;11.37;;;3.90;99.90;;;;;;4227708;28;20284;-60
2024/02/07 02:09:58;;;;;;;23.70;11.57;;;3.90;99.90;;;;;;4228806;28;20325;-62
2024/02/07 02:12:00;;;;;;;23.70;11.10;;;3.90;99.90;;;;;;4227823;28;20306;-60
2024/02/07 02:14:02;;;;;;;22.70;11.60;;;3.80;99.90;;;;;;4227784;28;20321;-62
2024/02/07 02:16:03;;;;;;;24.13;11.53;;;3.70;99.90;;;;;;4228173;28;20280;-62
2024/02/07 02:18:05;;;;;;;23.37;12.60;;;3.70;99.90;;;;;;4227237;28;20613;-62
2024/02/07 02:20:07;;;;;;;23.03;11.73;;;3.70;99.90;;;;;;4228105;28;20256;-59
2024/02/07 02:22:47;;;;;;;20.67;10.77;;;3.70;99.90;;;;;;4227782;28;20694;-62
2024/02/07 02:25:19;;;;;;;22.57;10.87;;;3.70;99.90;;;;;;4227881;28;20720;-62
2024/02/07 02:27:50;;;;;;;23.73;10.93;;;3.80;99.90;;;;;;4227261;28;20605;-61
2024/02/07 02:29:53;;;;;;;18.27;9.73;;;3.80;99.90;;;;;;4227217;28;20317;-61
2024/02/07 02:31:57;;;;;;;22.43;9.97;;;3.80;99.90;;;;;;4228534;28;20263;-60
2024/02/07 02:34:00;;;;;;;25.67;10.73;;;3.80;99.90;;;;;;4227307;28;20242;-61
2024/02/07 02:36:05;;;;;;;21.83;10.53;;;3.80;99.90;;;;;;4227961;28;20278;-62
2024/02/07 02:38:07;;;;;;;21.10;9.30;;;3.90;99.90;;;;;;4227034;28;20309;-61
2024/02/07 02:40:08;;;;;;;15.63;7.90;;;3.90;99.90;;;;;;4227799;28;20272;-62
2024/02/07 02:42:09;;;;;;;16.27;9.40;;;3.90;99.90;;;;;;4227528;28;20332;-61
2024/02/07 02:44:14;;;;;;;21.07;10.10;;;3.90;99.90;;;;;;4227573;28;20309;-62
2024/02/07 02:46:15;;;;;;;17.93;8.83;;;3.80;99.90;;;;;;4227730;28;20593;-62
2024/02/07 02:48:17;;;;;;;32.27;9.77;;;3.80;99.90;;;;;;4227210;28;20756;-62
2024/02/07 02:50:21;;;;;;;17.73;9.03;;;3.70;99.90;;;;;;4228479;28;20272;-63
2024/02/07 02:52:27;;;;;;;19.83;9.37;;;3.70;99.90;;;;;;4227312;28;20264;-61
2024/02/07 02:54:32;;;;;;;19.00;8.40;;;3.60;99.90;;;;;;4228418;28;20328;-62
2024/02/07 02:56:34;;;;;;;15.27;7.80;;;3.70;99.90;;;;;;4226456;28;20321;-60
2024/02/07 02:58:36;;;;;;;13.07;7.53;;;3.60;99.90;;;;;;4226926;28;20264;-61
2024/02/07 03:00:37;;;;;;;11.57;6.87;;;3.60;99.90;;;;;;4227086;28;20768;-61
2024/02/07 03:02:40;;;;;;;11.83;6.17;;;3.60;99.90;;;;;;4228211;28;20321;-61
2024/02/07 03:04:41;;;;;;;15.03;6.87;;;3.50;99.90;;;;;;4226954;28;20273;-63
2024/02/07 03:06:58;;;;;;;14.43;7.07;;;3.40;99.90;;;;;;4228262;28;20276;-61
2024/02/07 03:09:19;;;;;;;15.20;7.27;;;3.30;99.90;;;;;;4226655;28;20609;-61
2024/02/07 03:11:23;;;;;;;15.85;6.18;;;3.20;99.90;;;;;;4228147;28;20280;-60
2024/02/07 03:13:25;;;;;;;12.70;7.00;;;3.20;99.90;;;;;;4226947;28;20100;-62
2024/02/07 03:15:27;;;;;;;14.17;7.30;;;3.20;99.90;;;;;;4227788;28;20264;-63
2024/02/07 03:17:28;;;;;;;16.27;7.97;;;3.20;99.90;;;;;;4226990;28;20256;-60
2024/02/07 03:19:30;;;;;;;20.37;9.40;;;3.20;99.90;;;;;;4229673;28;20284;-60
2024/02/07 03:21:32;;;;;;;15.23;8.67;;;3.30;99.90;;;;;;4230485;28;20276;-61
2024/02/07 03:23:33;;;;;;;19.87;9.90;;;3.30;99.90;;;;;;4231224;28;20732;-61
2024/02/07 03:25:36;;;;;;;17.60;9.40;;;3.30;99.90;;;;;;4230520;27;20809;-62
2024/02/07 03:27:40;;;;;;;18.63;9.03;;;3.40;99.90;;;;;;4230521;28;20305;-61
2024/02/07 03:29:41;;;;;;;15.83;8.10;;;3.30;99.90;;;;;;4230310;27;20317;-62
2024/02/07 03:31:43;;;;;;;15.63;9.67;;;3.30;99.90;;;;;;4230543;28;20747;-61
2024/02/07 03:33:45;;;;;;;13.03;7.37;;;3.30;99.90;;;;;;4230406;28;20332;-61
2024/02/07 03:35:46;;;;;;;17.07;8.20;;;3.30;99.90;;;;;;4230462;27;20629;-61
2024/02/07 03:37:48;;;;;;;20.00;8.93;;;3.20;99.90;;;;;;4230713;28;20271;-61
2024/02/07 03:39:49;;;;;;;13.37;8.30;;;3.30;99.90;;;;;;4229853;28;20321;-61
2024/02/07 03:41:52;;;;;;;14.60;8.37;;;3.30;99.90;;;;;;4230769;28;21070;-61
2024/02/07 03:43:53;;;;;;;17.23;9.50;;;3.20;99.90;;;;;;4227654;28;20344;-60
2024/02/07 03:45:54;;;;;;;18.13;10.13;;;3.20;99.90;;;;;;4230926;28;20361;-61
2024/02/07 03:47:55;;;;;;;19.83;11.13;;;3.20;99.90;;;;;;4229661;27;20280;-62
2024/02/07 03:49:57;;;;;;;31.57;12.53;;;3.20;99.90;;;;;;4230727;28;20256;-62
2024/02/07 03:51:58;;;;;;;18.77;9.80;;;3.20;99.90;;;;;;4229957;28;20305;-62
2024/02/07 03:53:59;;;;;;;17.17;9.73;;;3.20;99.90;;;;;;4231039;27;20317;-62
2024/02/07 03:56:00;;;;;;;16.10;9.27;;;3.20;99.90;;;;;;4229539;27;20328;-60
2024/02/07 03:58:02;;;;;;;24.43;10.30;;;3.10;99.90;;;;;;4230205;28;20383;-62
2024/02/07 04:00:13;;;;;;;19.53;10.93;;;3.10;99.90;;;;;;4229765;27;20832;-62
2024/02/07 04:02:21;;;;;;;18.00;9.20;;;3.10;99.90;;;;;;4230381;27;20356;-61
2024/02/07 04:04:22;;;;;;;24.17;9.40;;;3.00;99.90;;;;;;4229839;28;20305;-60
2024/02/07 04:06:24;;;;;;;16.27;9.17;;;3.00;99.90;;;;;;4230403;27;20276;-61
2024/02/07 04:08:26;;;;;;;17.67;9.17;;;3.00;99.90;;;;;;4229983;28;20739;-61
2024/02/07 04:10:27;;;;;;;16.53;9.57;;;3.00;99.90;;;;;;4229928;28;20326;-61
2024/02/07 05:16:49;;;;;;;18.87;9.37;;;2.50;99.90;;;;;;4228491;28;20280;-60
2024/02/07 05:18:50;;;;;;;18.20;9.80;;;2.50;99.90;;;;;;4227351;28;20777;-60
2024/02/07 05:20:53;;;;;;;16.93;9.53;;;2.50;99.90;;;;;;4228604;28;20678;-60
2024/02/07 05:22:54;;;;;;;22.73;10.50;;;2.50;99.90;;;;;;4227410;28;20423;-60
2024/02/07 05:24:57;;;;;;;22.37;11.20;;;2.50;99.90;;;;;;4228745;27;20309;-61
2024/02/07 05:26:58;;;;;;;19.07;10.20;;;2.50;99.90;;;;;;4227415;27;20346;-60
2024/02/07 05:28:59;;;;;;;19.97;10.23;;;2.50;99.90;;;;;;4228755;28;20272;-61
2024/02/07 05:31:00;;;;;;;18.47;9.93;;;2.60;99.90;;;;;;4227444;28;20744;-60
2024/02/07 05:33:02;;;;;;;24.17;11.33;;;2.60;99.90;;;;;;4228351;28;20329;-61
2024/02/07 05:35:04;;;;;;;26.00;11.63;;;2.50;99.90;;;;;;4227340;28;20756;-60
2024/02/07 05:37:05;;;;;;;33.80;14.13;;;2.50;99.90;;;;;;4228101;28;20268;-60
2024/02/07 05:39:06;;;;;;;23.37;12.83;;;2.40;99.90;;;;;;4227856;28;20260;-60
2024/02/07 05:41:08;;;;;;;27.67;13.13;;;2.40;99.90;;;;;;4227731;28;20275;-59
2024/02/07 05:43:10;;;;;;;22.80;12.77;;;2.30;99.90;;;;;;4226385;28;20271;-60
2024/02/07 05:45:12;;;;;;;32.00;15.13;;;2.20;99.90;;;;;;4227911;28;20280;-60
2024/02/07 05:47:13;;;;;;;29.47;14.07;;;2.10;99.90;;;;;;4228220;28;20706;-59
2024/02/07 05:49:14;;;;;;;25.53;14.23;;;2.00;99.90;;;;;;4227605;28;20674;-60
2024/02/07 05:51:22;;;;;;;33.10;13.17;;;2.00;99.90;;;;;;4229043;28;20264;-61
2024/02/07 05:53:23;;;;;;;28.37;12.60;;;2.00;99.90;;;;;;4226383;28;20265;-60
2024/02/07 05:55:25;;;;;;;19.83;11.30;;;2.10;99.90;;;;;;4228662;28;20252;-61
2024/02/07 05:57:26;;;;;;;28.47;12.83;;;2.10;99.90;;;;;;4227649;28;20268;-60
2024/02/07 05:59:27;;;;;;;23.47;12.23;;;2.20;99.90;;;;;;4227038;28;20321;-60
2024/02/07 06:01:29;;;;;;;28.63;14.20;;;2.20;99.90;;;;;;4227734;27;20345;-60
2024/02/07 06:03:30;;;;;;;25.10;14.67;;;2.20;99.90;;;;;;4228652;28;20271;-61
2024/02/07 06:05:34;;;;;;;30.63;15.30;;;2.30;99.90;;;;;;4227746;27;20352;-61
2024/02/07 06:07:36;;;;;;;34.43;17.00;;;2.40;99.90;;;;;;4228589;28;20338;-59
2024/02/07 06:09:37;;;;;;;32.43;17.17;;;2.50;99.90;;;;;;4226938;28;20264;-61
2024/02/07 06:11:42;;;;;;;30.87;16.77;;;2.60;99.90;;;;;;4227816;28;20337;-57
2024/02/07 06:13:43;;;;;;;34.20;17.93;;;2.70;99.90;;;;;;4226832;28;20298;-61
2024/02/07 06:15:45;;;;;;;33.23;18.10;;;2.90;99.90;;;;;;4226467;27;20682;-61
2024/02/07 06:17:46;;;;;;;39.07;17.60;;;3.20;99.90;;;;;;4226351;28;20354;-61
2024/02/07 06:19:47;;;;;;;33.13;17.00;;;3.30;99.90;;;;;;4226844;28;20259;-62
2024/02/07 06:21:51;;;;;;;30.63;16.37;;;3.50;99.90;;;;;;4228063;27;20776;-60
2024/02/07 06:23:53;;;;;;;36.63;17.43;;;3.80;99.90;;;;;;4226661;28;20317;-61
2024/02/07 06:25:54;;;;;;;37.07;17.77;;;4.10;99.90;;;;;;4227814;28;20739;-60
2024/02/07 06:27:55;;;;;;;39.17;19.43;;;4.40;99.90;;;;;;4226629;28;20272;-61
2024/02/07 06:29:56;;;;;;;35.17;18.07;;;4.80;99.90;;;;;;4228190;28;20337;-60
2024/02/07 06:32:01;;;;;;;35.47;17.30;;;5.10;99.90;;;;;;4226756;28;20272;-61
2024/02/07 06:34:03;;;;;;;38.00;18.63;;;5.40;99.90;;;;;;4228119;28;20305;-61
2024/02/07 06:36:05;;;;;;;33.93;16.17;;;5.70;99.90;;;;;;4227016;28;20264;-61
2024/02/07 06:38:06;;;;;;;28.17;14.23;;;6.00;99.90;;;;;;4228540;28;20047;-61
2024/02/07 06:40:08;;;;;;;27.20;13.70;;;6.20;99.90;;;;;;4226145;28;20104;-61
2024/02/07 06:42:09;;;;;;;25.57;13.70;;;6.20;99.90;;;;;;4223994;28;20044;-63
2024/02/07 06:44:11;;;;;;;28.27;14.90;;;6.20;99.90;;;;;;4227380;28;20036;-61
2024/02/07 06:46:12;;;;;;;26.83;13.93;;;6.20;99.90;;;;;;4224659;28;20036;-62
2024/02/07 06:48:14;;;;;;;21.23;12.50;;;6.40;99.90;;;;;;4211533;28;20085;-61
2024/02/07 06:50:15;;;;;;;22.93;12.33;;;6.50;99.90;;;;;;4210682;28;21292;-62
2024/02/07 06:52:16;;;;;;;23.63;12.57;;;6.40;99.90;;;;;;4213907;28;20562;-62
2024/02/07 06:54:18;;;;;;;25.83;13.17;;;6.50;99.90;;;;;;4209449;28;20447;-62
2024/02/07 06:56:19;;;;;;;28.57;14.73;;;6.50;99.90;;;;;;4210255;28;20081;-58
2024/02/07 06:58:20;;;;;;;24.37;13.27;;;6.40;99.90;;;;;;4205975;28;20040;-61
2024/02/07 07:00:21;;;;;;;25.63;13.93;;;6.40;99.90;;;;;;4206907;28;20028;-61
2024/02/07 07:02:22;;;;;;;31.23;15.67;;;6.40;99.90;;;;;;4211847;28;20089;-60
2024/02/07 07:04:24;;;;;;;44.10;18.00;;;6.60;99.90;;;;;;4211442;28;20035;-61
2024/02/07 07:06:26;;;;;;;29.40;15.17;;;6.80;99.90;;;;;;4207983;28;20036;-62
2024/02/07 07:08:27;;;;;;;27.03;14.10;;;7.00;99.90;;;;;;4214046;28;20024;-61
2024/02/07 07:10:28;;;;;;;27.93;13.77;;;7.10;99.90;;;;;;4215903;28;20116;-60
2024/02/07 07:12:30;;;;;;;32.50;15.93;;;7.20;99.90;;;;;;4210831;28;20516;-63
2024/02/07 07:14:32;;;;;;;29.87;16.47;;;7.30;99.90;;;;;;4210244;28;20062;-63
2024/02/07 07:16:33;;;;;;;37.70;18.93;;;7.20;99.90;;;;;;4214620;28;20475;-62
2024/02/07 07:18:34;;;;;;;37.93;17.87;;;7.10;99.90;;;;;;4221544;28;20116;-60
2024/02/07 07:20:35;;;;;;;34.13;16.70;;;7.10;99.90;;;;;;4222489;28;20043;-61
2024/02/07 07:22:36;;;;;;;32.77;18.43;;;7.10;99.90;;;;;;4226861;28;20434;-61
2024/02/07 07:24:37;;;;;;;36.13;17.07;;;6.90;99.90;;;;;;4227331;28;20039;-63
2024/02/07 07:26:39;;;;;;;29.37;14.27;;;7.00;99.90;;;;;;4225865;28;20023;-61
2024/02/07 07:28:40;;;;;;;18.97;11.70;;;7.10;99.90;;;;;;4209672;28;20082;-61
2024/02/07 07:30:41;;;;;;;35.57;16.83;;;7.00;99.90;;;;;;4210808;28;20032;-61
2024/02/07 07:32:42;;;;;;;29.70;14.03;;;6.90;99.90;;;;;;4217709;28;20039;-61
2024/02/07 07:34:43;;;;;;;18.37;10.60;;;7.00;99.90;;;;;;4227781;28;20036;-61
2024/02/07 07:36:44;;;;;;;19.63;9.83;;;7.20;99.90;;;;;;4225677;28;20048;-62
2024/02/07 07:38:46;;;;;;;19.63;11.67;;;7.30;99.90;;;;;;4227326;28;20477;-61
2024/02/07 07:40:47;;;;;;;21.23;10.97;;;7.20;99.90;;;;;;4226070;28;20035;-61
2024/02/07 07:42:48;;;;;;;22.03;10.73;;;7.40;99.90;;;;;;4227192;28;20052;-60
2024/02/07 07:44:49;;;;;;;16.37;9.07;;;7.60;99.90;;;;;;4225850;28;20043;-61
2024/02/07 07:46:50;;;;;;;22.80;10.60;;;7.70;99.90;;;;;;4226699;28;21014;-62
2024/02/07 07:48:52;;;;;;;25.93;13.23;;;7.60;99.90;;;;;;4209654;28;20442;-61
2024/02/07 07:50:54;;;;;;;26.43;12.70;;;7.10;99.90;;;;;;4216645;28;20036;-62
2024/02/07 07:52:55;;;;;;;25.67;12.73;;;6.70;99.90;;;;;;4217359;28;20091;-62
2024/02/07 07:54:56;;;;;;;23.83;12.10;;;6.70;99.90;;;;;;4210327;28;20020;-61
2024/02/07 07:56:59;;;;;;;24.93;12.13;;;6.90;99.90;;;;;;4224158;28;20070;-61
2024/02/07 07:59:00;;;;;;;32.07;14.17;;;7.10;99.90;;;;;;4209982;28;20028;-61
2024/02/07 08:01:01;;;;;;;27.67;13.10;;;7.30;99.90;;;;;;4215037;28;20057;-62
2024/02/07 08:03:03;;;;;;;29.40;13.03;;;7.20;99.90;;;;;;4225986;28;20101;-61
2024/02/07 08:05:05;;;;;;;35.43;13.40;;;7.10;99.90;;;;;;4230371;28;20043;-61
2024/02/07 08:07:08;;;;;;;31.13;13.80;;;7.10;99.90;;;;;;4226394;28;20084;-60
2024/02/07 08:09:09;;;;;;;36.77;14.97;;;7.30;99.90;;;;;;4214766;28;20044;-61
2024/02/07 08:11:10;;;;;;;25.20;13.67;;;7.40;99.90;;;;;;4229305;28;20035;-61
2024/02/07 08:13:11;;;;;;;27.70;12.47;;;7.30;99.90;;;;;;4227537;28;20645;-61
2024/02/07 08:15:12;;;;;;;22.07;13.30;;;7.30;99.90;;;;;;4228524;28;20123;-62
2024/02/07 08:17:18;;;;;;;26.77;14.87;;;7.50;99.90;;;;;;4228319;28;20069;-61
2024/02/07 08:19:19;;;;;;;22.87;13.00;;;7.70;99.90;;;;;;4228740;28;20426;-62
2024/02/07 08:21:20;;;;;;;19.40;11.87;;;7.90;99.90;;;;;;4230176;28;20028;-61
2024/02/07 08:23:21;;;;;;;24.37;13.30;;;8.20;99.90;;;;;;4220618;28;20039;-60
2024/02/07 08:25:22;;;;;;;44.43;15.33;;;8.10;99.90;;;;;;4230258;27;20110;-62
2024/02/07 08:27:23;;;;;;;22.07;12.90;;;8.00;99.90;;;;;;4226142;28;20044;-61
2024/02/07 08:29:25;;;;;;;25.37;12.80;;;7.70;99.90;;;;;;4212730;28;20032;-61
2024/02/07 08:31:26;;;;;;;24.57;12.23;;;7.70;99.90;;;;;;4212695;28;20040;-60
2024/02/07 08:33:27;;;;;;;25.03;12.47;;;7.80;99.90;;;;;;4210968;28;20048;-61
2024/02/07 08:35:28;;;;;;;25.27;11.83;;;8.00;99.90;;;;;;4225486;28;20086;-61
2024/02/07 08:37:30;;;;;;;26.97;12.53;;;8.30;99.90;;;;;;4212156;28;20082;-61
2024/02/07 08:39:31;;;;;;;29.50;14.43;;;8.50;99.90;;;;;;4213225;28;20077;-61
2024/02/07 08:41:32;;;;;;;37.80;14.53;;;8.60;99.90;;;;;;4224814;28;20116;-61
2024/02/07 08:43:33;;;;;;;30.57;14.17;;;8.60;99.90;;;;;;4229834;28;20123;-61
2024/02/07 08:45:37;;;;;;;26.83;13.60;;;8.60;99.90;;;;;;4228959;28;20077;-61
2024/02/07 08:47:38;;;;;;;35.50;16.17;;;8.60;99.90;;;;;;4229884;28;20097;-61
2024/02/07 08:49:40;;;;;;;32.30;14.37;;;8.70;99.90;;;;;;4228876;27;20077;-62
2024/02/07 08:51:43;;;;;;;29.27;14.37;;;9.00;99.90;;;;;;4229058;28;20027;-60
2024/02/07 08:53:47;;;;;;;31.10;13.40;;;8.80;99.90;;;;;;4225050;28;20084;-60
2024/02/07 08:55:48;;;;;;;29.93;15.53;;;8.70;99.90;;;;;;4230047;28;20080;-60
2024/02/07 08:57:49;;;;;;;32.37;14.90;;;8.50;99.90;;;;;;4228416;28;20410;-60
2024/02/07 08:59:50;;;;;;;35.17;15.40;;;8.30;99.90;;;;;;4228813;28;20081;-61
2024/02/07 09:01:52;;;;;;;38.90;17.40;;;8.10;99.90;;;;;;4228593;28;20429;-60
2024/02/07 09:03:53;;;;;;;39.27;17.67;;;8.00;99.90;;;;;;4218914;28;20561;-61
2024/02/07 09:05:54;;;;;;;36.37;17.40;;;8.00;99.90;;;;;;4228436;28;20008;-61
2024/02/07 09:07:55;;;;;;;31.07;17.37;;;7.90;99.90;;;;;;4222539;27;20032;-62
2024/02/07 09:09:57;;;;;;;36.73;16.33;;;7.90;99.90;;;;;;4212223;28;20078;-61
2024/02/07 09:11:58;;;;;;;36.30;17.77;;;7.90;99.90;;;;;;4211473;28;20032;-62
2024/02/07 09:13:59;;;;;;;45.97;16.73;;;8.30;99.90;;;;;;4226768;28;20084;-61
2024/02/07 09:16:00;;;;;;;28.57;15.60;;;8.60;99.90;;;;;;4227085;28;20035;-62
2024/02/07 09:18:02;;;;;;;27.97;14.00;;;8.80;99.90;;;;;;4223765;28;20066;-59
2024/02/07 09:20:03;;;;;;;28.27;13.17;;;9.10;99.90;;;;;;4222078;28;20092;-62
2024/02/07 09:22:05;;;;;;;28.80;13.13;;;9.20;99.90;;;;;;4229016;28;20092;-61
2024/02/07 09:24:07;;;;;;;27.20;11.80;;;9.20;99.90;;;;;;4218038;28;20035;-61
2024/02/07 09:26:08;;;;;;;29.10;11.93;;;9.20;99.90;;;;;;4229463;28;20479;-62
2024/02/07 09:28:09;;;;;;;32.77;12.87;;;9.40;99.90;;;;;;4227102;28;20040;-62
2024/02/07 09:30:11;;;;;;;33.87;13.03;;;9.50;99.90;;;;;;4228598;27;20097;-62
2024/02/07 09:32:12;;;;;;;26.40;13.03;;;9.60;99.90;;;;;;4222706;27;20032;-58
2024/02/07 09:34:13;;;;;;;26.20;11.80;;;9.70;99.90;;;;;;4213100;28;20024;-59
2024/02/07 09:36:15;;;;;;;24.30;11.43;;;9.90;99.90;;;;;;4220516;28;20031;-56
2024/02/07 09:38:16;;;;;;;30.13;12.70;;;9.80;99.90;;;;;;4221334;28;20024;-61
2024/02/07 09:40:19;;;;;;;24.67;10.63;;;9.80;99.90;;;;;;4211504;28;20044;-61
2024/02/07 09:42:21;;;;;;;15.07;8.50;;;9.90;99.90;;;;;;4210738;28;20039;-61
2024/02/07 09:44:26;;;;;;;18.60;9.33;;;10.00;99.90;;;;;;4219381;28;20081;-61
2024/02/07 09:46:41;;;;;;;25.10;9.80;;;10.20;99.90;;;;;;4225061;27;20039;-61
2024/02/07 09:48:43;;;;;;;17.77;8.83;;;10.20;99.90;;;;;;4212551;28;20728;-60
2024/02/07 09:50:44;;;;;;;16.37;7.73;;;10.20;99.90;;;;;;4210606;28;20032;-60
2024/02/07 09:52:48;;;;;;;14.53;8.83;;;10.30;99.90;;;;;;4228587;28;20024;-59
2024/02/07 09:54:51;;;;;;;15.70;8.97;;;10.40;99.90;;;;;;4227469;28;20536;-61
2024/02/07 09:56:53;;;;;;;17.37;7.90;;;10.60;99.90;;;;;;4227273;27;20537;-62
2024/02/07 09:58:54;;;;;;;14.40;7.33;;;10.60;99.90;;;;;;4226744;28;20069;-59
2024/02/07 10:00:56;;;;;;;22.43;8.83;;;10.70;99.90;;;;;;4228013;28;20036;-61
2024/02/07 10:02:58;;;;;;;17.00;7.77;;;10.80;99.90;;;;;;4227177;28;20517;-61
2024/02/07 10:05:01;;;;;;;14.93;8.10;;;10.70;99.90;;;;;;4228298;27;20453;-61
2024/02/07 10:07:07;;;;;;;18.70;9.00;;;10.70;99.90;;;;;;4225468;28;20057;-60
2024/02/07 10:09:09;;;;;;;14.13;8.77;;;10.70;99.90;;;;;;4228768;28;20024;-57
2024/02/07 10:11:10;;;;;;;14.53;7.83;;;10.70;99.90;;;;;;4227279;28;20044;-60
2024/02/07 10:13:14;;;;;;;16.00;8.43;;;10.70;99.90;;;;;;4228302;28;20049;-61
2024/02/07 10:15:16;;;;;;;11.70;7.20;;;10.70;99.90;;;;;;4227662;28;20260;-61
2024/02/07 10:17:17;;;;;;;16.07;8.07;;;10.60;99.90;;;;;;4227001;28;20047;-61
2024/02/07 10:19:18;;;;;;;13.00;6.43;;;10.60;99.90;;;;;;4227722;28;20536;-61
2024/02/07 10:21:19;;;;;;;14.20;7.23;;;10.70;99.90;;;;;;4227432;28;20036;-60
2024/02/07 10:23:21;;;;;;;13.83;7.20;;;10.60;99.90;;;;;;4228570;28;20043;-61
2024/02/07 10:25:23;;;;;;;14.07;7.57;;;10.60;99.90;;;;;;4227464;28;20035;-62
2024/02/07 10:27:24;;;;;;;18.43;8.27;;;10.70;99.90;;;;;;4228291;28;20043;-61
2024/02/07 10:29:25;;;;;;;15.23;6.97;;;10.70;99.90;;;;;;4226949;28;20143;-61
2024/02/07 10:31:27;;;;;;;16.03;7.53;;;10.70;99.90;;;;;;4227681;28;20032;-61
2024/02/07 10:33:35;;;;;;;19.27;7.93;;;10.70;99.90;;;;;;4226523;28;20085;-60
2024/02/07 10:35:36;;;;;;;16.97;8.17;;;10.70;99.90;;;;;;4228064;27;20040;-61
2024/02/07 10:37:41;;;;;;;19.57;9.03;;;10.70;99.90;;;;;;4226917;28;20027;-59
2024/02/07 10:39:42;;;;;;;17.07;9.23;;;10.80;99.90;;;;;;4227942;28;20414;-59
2024/02/07 10:41:43;;;;;;;19.63;9.37;;;11.00;99.90;;;;;;4226503;28;20545;-60
2024/02/07 10:43:44;;;;;;;15.20;7.63;;;11.10;99.90;;;;;;4227482;28;20059;-61
2024/02/07 10:45:56;;;;;;;18.90;7.57;;;11.10;99.90;;;;;;4226878;28;20035;-61
2024/02/07 10:47:59;;;;;;;11.83;6.70;;;11.10;99.90;;;;;;4227427;28;20044;-61
2024/02/07 10:50:05;;;;;;;12.07;6.90;;;11.10;99.90;;;;;;4226468;28;20046;-62
2024/02/07 10:52:11;;;;;;;15.13;6.70;;;11.00;99.90;;;;;;4227304;28;20040;-62
2024/02/07 10:54:12;;;;;;;17.20;7.53;;;11.00;99.90;;;;;;4227093;28;20085;-61
2024/02/07 10:56:18;;;;;;;15.50;8.07;;;11.10;99.90;;;;;;4227732;28;20024;-62
2024/02/07 10:58:24;;;;;;;12.30;7.00;;;11.20;99.90;;;;;;4226870;28;20088;-62
2024/02/07 11:00:26;;;;;;;15.90;7.50;;;11.10;99.90;;;;;;4227226;28;20463;-62
2024/02/07 11:02:28;;;;;;;10.90;6.17;;;11.20;99.90;;;;;;4226297;28;20445;-61
2024/02/07 11:04:31;;;;;;;9.97;6.50;;;11.20;99.90;;;;;;4226229;28;20031;-60
2024/02/07 11:06:34;;;;;;;15.80;6.10;;;11.30;99.90;;;;;;4227526;28;20072;-59
2024/02/07 11:08:36;;;;;;;10.07;6.33;;;11.40;99.90;;;;;;4226822;28;20089;-60
2024/02/07 11:10:38;;;;;;;18.63;7.47;;;11.40;99.90;;;;;;4227607;28;20085;-61
2024/02/07 11:12:40;;;;;;;11.13;5.90;;;11.50;99.90;;;;;;4226392;28;20048;-60
2024/02/07 11:14:46;;;;;;;16.83;7.10;;;11.50;99.90;;;;;;4226400;28;20085;-61
2024/02/07 11:16:48;;;;;;;10.67;5.57;;;11.60;99.90;;;;;;4217413;28;20085;-59
2024/02/07 11:18:49;;;;;;;16.50;6.97;;;11.60;99.90;;;;;;4219821;28;20386;-61
2024/02/07 11:20:53;;;;;;;15.17;7.27;;;11.70;99.90;;;;;;4215110;28;20081;-59
2024/02/07 11:22:56;;;;;;;13.87;7.37;;;11.70;99.90;;;;;;4211447;28;20052;-63
2024/02/07 11:28:57;;;;;;;10.80;5.77;;;11.80;99.90;;;;;;4145419;28;20576;-61
2024/02/07 11:31:09;;;;;;;8.23;4.20;;;11.80;99.90;;;;;;4125407;28;20094;-60
2024/02/07 11:35:39;;;;;;;10.52;4.95;;;11.90;99.90;;;;;;4179979;28;20086;-61
2024/02/07 11:37:40;;;;;;;14.27;5.07;;;12.00;99.90;;;;;;4193575;28;20487;-60
2024/02/07 11:39:42;;;;;;;11.30;4.93;;;12.00;99.90;;;;;;4193911;28;20036;-61
2024/02/07 11:41:46;;;;;;;10.60;5.10;;;12.00;99.90;;;;;;4196639;28;20032;-62
2024/02/07 11:43:54;;;;;;;10.97;4.93;;;12.10;99.90;;;;;;4195519;28;20041;-61